Time;durP1;ratioP1;P1;durP2;ratioP2;P2;SDS_P1;SDS_P2;PMS_P1;PMS_P2;Temp;Humidity;BMP_temperature;BMP_pressure;BME280_temperature;BME280_humidity;BME280_pressure;Samples;Min_cycle;Max_cycle;Signal;HPM_P1;HPM_P2
2022/10/02 00:01:25;;;;;;;1.83;0.32;;;11.70;99.90;;;;;;5036698;28;20128;-87
2022/10/02 00:03:52;;;;;;;0.65;0.20;;;11.70;99.90;;;;;;5022496;28;20144;-87
2022/10/02 00:06:23;;;;;;;1.67;0.68;;;11.70;99.90;;;;;;5033606;28;20355;-87
2022/10/02 00:08:55;;;;;;;2.22;0.20;;;11.80;99.90;;;;;;5025118;28;20018;-87
2022/10/02 00:11:25;;;;;;;0.77;0.40;;;11.80;99.90;;;;;;5038092;28;20032;-86
2022/10/02 00:13:59;;;;;;;2.45;0.35;;;11.80;99.90;;;;;;5035696;28;20138;-87
2022/10/02 00:16:36;;;;;;;0.10;0.10;;;11.80;99.90;;;;;;5041255;28;20200;-87
2022/10/02 00:19:02;;;;;;;1.42;0.65;;;11.80;99.90;;;;;;5043354;28;20059;-87
2022/10/02 00:21:36;;;;;;;0.93;0.32;;;11.90;99.90;;;;;;5038697;28;20055;-88
2022/10/02 00:24:05;;;;;;;1.13;0.40;;;11.90;99.90;;;;;;5027157;28;20100;-87
2022/10/02 00:26:45;;;;;;;0.90;0.30;;;12.30;99.90;;;;;;5040666;28;20048;-87
2022/10/02 00:29:40;;;;;;;0.52;0.20;;;11.90;99.90;;;;;;5039262;28;20029;-87
2022/10/02 00:32:24;;;;;;;1.50;0.52;;;11.90;99.90;;;;;;5004229;28;20041;-86
2022/10/02 00:35:11;;;;;;;1.05;0.30;;;11.90;99.90;;;;;;5021129;28;20021;-86
2022/10/02 00:37:52;;;;;;;1.73;0.40;;;11.90;99.90;;;;;;5020830;28;20037;-87
2022/10/02 00:40:53;;;;;;;0.43;0.13;;;11.90;99.90;;;;;;5031963;28;20394;-85
2022/10/02 00:43:32;;;;;;;0.83;0.20;;;11.90;99.90;;;;;;5037084;28;20030;-86
2022/10/02 00:46:15;;;;;;;2.33;0.32;;;12.00;99.90;;;;;;5034151;28;20375;-86
2022/10/02 00:49:00;;;;;;;1.35;0.32;;;11.90;99.90;;;;;;5017880;28;20029;-87
2022/10/02 00:51:31;;;;;;;1.80;0.22;;;11.90;99.90;;;;;;5026543;28;20025;-87
2022/10/02 00:54:36;;;;;;;1.15;0.22;;;11.90;99.90;;;;;;5015714;28;20022;-87
2022/10/02 00:57:17;;;;;;;3.67;1.17;;;11.90;99.90;;;;;;5011997;28;20049;-87
2022/10/02 00:59:55;;;;;;;2.85;0.20;;;11.90;99.90;;;;;;5021335;28;20053;-86
2022/10/02 01:02:41;;;;;;;0.10;0.10;;;11.90;99.90;;;;;;5025879;28;20025;-86
2022/10/02 01:05:08;;;;;;;2.40;0.30;;;11.90;99.90;;;;;;5024689;28;20375;-87
2022/10/02 01:07:40;;;;;;;2.13;0.30;;;11.90;99.90;;;;;;5031059;28;20022;-86
2022/10/02 01:10:07;;;;;;;0.28;0.17;;;11.90;99.90;;;;;;5025922;28;20029;-86
2022/10/02 01:12:33;;;;;;;1.05;0.22;;;12.00;99.90;;;;;;5026508;28;20018;-86
2022/10/02 01:14:59;;;;;;;4.50;0.43;;;12.00;99.90;;;;;;5027603;28;20022;-86
2022/10/02 01:17:33;;;;;;;2.83;0.20;;;12.00;99.90;;;;;;5019884;28;20029;-86
2022/10/02 01:20:04;;;;;;;2.78;0.95;;;12.00;99.90;;;;;;5025678;28;20022;-86
2022/10/02 01:22:57;;;;;;;0.70;0.30;;;12.00;99.90;;;;;;5024832;28;20067;-86
2022/10/02 01:25:23;;;;;;;0.68;0.20;;;12.00;99.90;;;;;;5029197;28;20029;-87
2022/10/02 01:27:49;;;;;;;1.08;0.20;;;11.90;99.90;;;;;;5021317;28;20033;-85
2022/10/02 01:30:17;;;;;;;0.90;0.10;;;12.00;99.90;;;;;;5030719;28;20094;-86
2022/10/02 01:32:52;;;;;;;0.85;0.20;;;12.00;99.90;;;;;;5027153;28;20083;-84
2022/10/02 01:35:21;;;;;;;1.55;0.30;;;12.50;99.90;;;;;;5029142;28;20030;-87
2022/10/02 01:37:49;;;;;;;1.27;0.57;;;12.50;99.90;;;;;;5020256;28;20049;-87
2022/10/02 01:40:32;;;;;;;2.72;0.30;;;12.00;99.90;;;;;;5025424;28;20018;-86
2022/10/02 01:43:02;;;;;;;0.80;0.30;;;12.00;99.90;;;;;;5025696;28;20046;-87
2022/10/02 01:45:51;;;;;;;3.28;0.35;;;12.10;99.90;;;;;;5023117;28;20109;-86
2022/10/02 01:48:46;;;;;;;1.92;0.40;;;12.10;99.90;;;;;;4972723;28;20533;-87
2022/10/02 01:51:21;;;;;;;2.00;0.10;;;12.10;99.90;;;;;;5018827;28;20029;-87
2022/10/02 01:54:07;;;;;;;1.55;0.30;;;12.10;99.90;;;;;;5029748;28;20029;-87
2022/10/02 01:56:53;;;;;;;0.57;0.10;;;12.10;99.90;;;;;;5028231;28;20032;-86
2022/10/02 01:59:37;;;;;;;1.70;0.43;;;12.10;99.90;;;;;;5029402;28;20075;-87
2022/10/02 02:02:24;;;;;;;1.67;0.30;;;12.20;99.90;;;;;;5021208;28;20496;-87
2022/10/02 02:05:11;;;;;;;1.23;0.28;;;12.10;99.90;;;;;;5028256;28;20398;-87
2022/10/02 02:07:58;;;;;;;3.55;0.30;;;12.20;99.90;;;;;;5025556;28;20018;-87
2022/10/02 02:10:35;;;;;;;2.67;0.63;;;12.20;99.90;;;;;;5031414;28;20359;-86
2022/10/02 02:13:06;;;;;;;0.68;0.20;;;12.10;99.90;;;;;;5026379;23;20074;-81
2022/10/02 02:15:42;;;;;;;0.88;0.10;;;12.20;99.90;;;;;;4967774;28;20059;-81
2022/10/02 02:18:31;;;;;;;0.70;0.20;;;12.20;99.90;;;;;;4968281;28;20045;-81
2022/10/02 02:21:03;;;;;;;0.35;0.20;;;12.20;99.90;;;;;;4973206;28;20396;-81
2022/10/02 02:23:33;;;;;;;1.35;0.28;;;12.20;99.90;;;;;;4976493;28;20086;-82
2022/10/02 02:26:04;;;;;;;1.75;0.47;;;12.30;99.90;;;;;;4953022;28;20040;-82
2022/10/02 02:28:32;;;;;;;0.82;0.30;;;12.20;99.90;;;;;;4948162;28;20027;-81
2022/10/02 02:31:00;;;;;;;3.20;0.35;;;12.20;99.90;;;;;;4971409;28;20031;-82
2022/10/02 02:33:42;;;;;;;2.20;0.35;;;12.20;99.90;;;;;;4960032;28;20027;-80
2022/10/02 02:36:14;;;;;;;1.55;0.10;;;12.20;99.90;;;;;;4953314;28;20047;-82
2022/10/02 02:38:46;;;;;;;0.77;0.20;;;12.30;99.90;;;;;;4956351;28;20097;-82
2022/10/02 02:41:16;;;;;;;1.55;0.32;;;12.20;99.90;;;;;;4958129;28;20031;-81
2022/10/02 02:44:02;;;;;;;0.75;0.15;;;12.30;99.90;;;;;;4953872;28;20027;-81
2022/10/02 02:46:31;;;;;;;2.47;0.20;;;12.30;99.90;;;;;;4955036;29;20083;-81
2022/10/02 02:49:06;;;;;;;5.65;0.85;;;12.30;99.90;;;;;;4958421;28;20019;-81
2022/10/02 02:51:36;;;;;;;0.30;0.20;;;12.20;99.90;;;;;;4951275;29;20031;-82
2022/10/02 02:54:12;;;;;;;0.43;0.20;;;12.20;99.90;;;;;;4970772;28;20051;-81
2022/10/02 02:56:40;;;;;;;0.50;0.20;;;12.20;99.90;;;;;;4963377;28;20027;-81
2022/10/02 02:59:10;;;;;;;1.65;0.30;;;12.20;99.90;;;;;;4954382;28;20034;-81
2022/10/02 03:01:36;;;;;;;2.20;0.20;;;12.20;99.90;;;;;;4950725;29;20047;-81
2022/10/02 03:04:02;;;;;;;1.20;0.32;;;12.20;99.90;;;;;;4948648;29;20062;-81
2022/10/02 03:06:46;;;;;;;1.65;0.30;;;12.20;99.90;;;;;;4952538;29;20035;-81
2022/10/02 03:09:18;;;;;;;2.30;0.35;;;12.20;99.90;;;;;;4956437;29;20031;-81
2022/10/02 03:12:09;;;;;;;2.00;0.30;;;12.20;99.90;;;;;;4958241;28;20476;-82
2022/10/02 03:15:05;;;;;;;5.25;0.52;;;12.20;99.90;;;;;;4945880;28;20051;-81
2022/10/02 03:17:49;;;;;;;2.80;0.40;;;12.10;99.90;;;;;;4956539;28;20051;-82
2022/10/02 03:20:15;;;;;;;2.30;0.30;;;12.20;99.90;;;;;;4952869;28;20019;-81
2022/10/02 03:22:50;;;;;;;1.08;0.32;;;12.10;99.90;;;;;;4951156;28;20078;-82
2022/10/02 03:25:40;;;;;;;2.25;0.40;;;12.20;99.90;;;;;;4969534;28;20141;-80
2022/10/02 03:28:40;;;;;;;2.15;0.43;;;12.20;99.90;;;;;;4956563;28;20037;-81
2022/10/02 03:31:08;;;;;;;0.77;0.22;;;12.10;99.90;;;;;;4957738;28;20045;-81
2022/10/02 03:33:36;;;;;;;1.80;0.40;;;12.10;99.90;;;;;;4948284;28;20051;-82
2022/10/02 03:36:02;;;;;;;1.08;0.13;;;12.10;99.90;;;;;;4959879;28;20023;-81
2022/10/02 03:38:28;;;;;;;1.33;0.20;;;12.10;99.90;;;;;;4960565;28;20086;-81
2022/10/02 03:40:57;;;;;;;3.20;0.40;;;12.10;99.90;;;;;;4960379;28;20027;-81
2022/10/02 03:43:27;;;;;;;2.15;0.57;;;12.10;99.90;;;;;;4951004;28;20035;-81
2022/10/02 03:45:52;;;;;;;1.15;0.38;;;12.20;99.90;;;;;;4960820;28;20422;-81
2022/10/02 03:48:19;;;;;;;0.93;0.32;;;12.10;99.90;;;;;;4957775;28;20039;-81
2022/10/02 03:50:44;;;;;;;1.33;0.20;;;12.10;99.90;;;;;;4961810;28;20024;-82
2022/10/02 03:53:16;;;;;;;1.58;0.20;;;12.20;99.90;;;;;;4960467;28;20034;-81
2022/10/02 03:55:56;;;;;;;2.05;0.30;;;12.10;99.90;;;;;;4961361;28;20042;-81
2022/10/02 03:58:24;;;;;;;1.33;0.30;;;12.20;99.90;;;;;;4961818;28;20031;-81
2022/10/02 04:00:58;;;;;;;2.03;0.28;;;12.10;99.90;;;;;;4959563;28;20073;-81
2022/10/02 04:03:29;;;;;;;1.25;0.40;;;12.10;99.90;;;;;;4959270;28;20023;-81
2022/10/02 04:06:14;;;;;;;2.00;0.30;;;12.40;99.90;;;;;;4953505;29;20039;-81
2022/10/02 04:08:46;;;;;;;0.77;0.40;;;12.10;99.90;;;;;;4954635;29;20100;-81
2022/10/02 04:11:26;;;;;;;1.02;0.40;;;12.10;99.90;;;;;;4959685;29;20086;-81
2022/10/02 04:14:05;;;;;;;2.97;0.47;;;12.10;99.90;;;;;;4959810;28;20031;-81
2022/10/02 04:16:38;;;;;;;0.77;0.25;;;12.30;99.90;;;;;;4958487;28;20094;-81
2022/10/02 04:19:19;;;;;;;1.50;0.30;;;12.10;99.90;;;;;;4954099;29;20027;-81
2022/10/02 04:22:05;;;;;;;0.85;0.20;;;12.10;99.90;;;;;;4958983;28;20563;-82
2022/10/02 04:24:38;;;;;;;2.25;0.40;;;12.10;99.90;;;;;;4949562;28;20023;-81
2022/10/02 04:27:31;;;;;;;2.67;0.70;;;12.10;99.90;;;;;;4952634;29;20041;-82
2022/10/02 04:30:01;;;;;;;4.15;0.40;;;12.10;99.90;;;;;;4956954;28;20025;-81
2022/10/02 04:32:30;;;;;;;1.83;0.50;;;12.10;99.90;;;;;;4960987;28;20023;-82
2022/10/02 04:34:56;;;;;;;1.95;0.20;;;12.10;99.90;;;;;;4956410;28;20015;-81
2022/10/02 04:37:56;;;;;;;2.88;0.35;;;12.10;99.90;;;;;;4960379;28;20385;-81
2022/10/02 04:40:56;;;;;;;2.00;0.98;;;12.10;99.90;;;;;;4954375;28;20102;-81
2022/10/02 04:43:40;;;;;;;2.70;0.30;;;12.10;99.90;;;;;;4953248;28;20055;-81
2022/10/02 04:46:44;;;;;;;3.08;0.40;;;12.10;99.90;;;;;;4969501;28;20247;-81
2022/10/02 04:49:39;;;;;;;1.55;0.30;;;12.00;99.90;;;;;;4952904;28;20020;-81
2022/10/02 04:52:22;;;;;;;1.17;0.30;;;12.00;99.90;;;;;;4959189;28;20027;-82
2022/10/02 04:55:03;;;;;;;1.52;0.32;;;12.00;99.90;;;;;;4950531;28;20031;-81
2022/10/02 04:58:14;;;;;;;3.45;0.30;;;12.00;99.90;;;;;;4969445;28;20068;-81
2022/10/02 05:00:51;;;;;;;0.75;0.20;;;12.00;99.90;;;;;;4946421;29;20518;-83
2022/10/02 05:03:35;;;;;;;1.83;0.35;;;12.00;99.90;;;;;;4950248;28;20097;-85
2022/10/02 05:06:32;;;;;;;0.50;0.30;;;12.00;99.90;;;;;;4972839;28;20082;-85
2022/10/02 05:09:06;;;;;;;0.70;0.13;;;12.00;99.90;;;;;;4955406;29;20019;-83
2022/10/02 05:11:51;;;;;;;0.82;0.30;;;12.00;99.90;;;;;;4950338;28;20027;-83
2022/10/02 05:14:48;;;;;;;1.15;0.25;;;11.90;99.90;;;;;;4952671;28;20054;-84
2022/10/02 05:17:27;;;;;;;0.52;0.20;;;11.90;99.90;;;;;;4955363;29;20043;-83
2022/10/02 05:19:52;;;;;;;1.15;0.30;;;11.90;99.90;;;;;;4957172;29;20043;-83
2022/10/02 05:22:32;;;;;;;2.83;0.52;;;11.90;99.90;;;;;;4954307;28;20535;-84
2022/10/02 05:25:35;;;;;;;1.05;0.32;;;11.90;99.90;;;;;;4960159;28;20035;-84
2022/10/02 05:28:03;;;;;;;1.42;0.40;;;11.90;99.90;;;;;;4954620;28;20532;-83
2022/10/02 05:30:47;;;;;;;1.42;0.30;;;11.90;99.90;;;;;;4942089;29;20480;-83
2022/10/02 05:33:35;;;;;;;4.10;0.55;;;11.90;99.90;;;;;;4946995;29;20136;-84
2022/10/02 05:36:31;;;;;;;0.77;0.30;;;11.80;99.90;;;;;;4957798;29;20027;-83
2022/10/02 05:39:06;;;;;;;0.95;0.20;;;11.90;99.90;;;;;;4954203;29;20407;-84
2022/10/02 05:42:05;;;;;;;2.42;0.40;;;11.90;99.90;;;;;;4957296;29;20046;-83
2022/10/02 05:44:36;;;;;;;1.52;0.43;;;11.80;99.90;;;;;;4956274;28;20023;-83
2022/10/02 05:47:17;;;;;;;2.67;0.30;;;11.80;99.90;;;;;;4959822;28;20095;-84
2022/10/02 05:49:51;;;;;;;0.25;0.15;;;11.80;99.90;;;;;;4954173;28;20571;-84
2022/10/02 05:52:22;;;;;;;3.00;0.30;;;11.90;99.90;;;;;;4956065;28;20098;-84
2022/10/02 05:54:54;;;;;;;3.35;0.30;;;11.90;99.90;;;;;;4955980;29;20027;-84
2022/10/02 05:57:35;;;;;;;4.80;0.80;;;11.90;99.90;;;;;;4954977;29;20495;-84
2022/10/02 06:00:19;;;;;;;3.72;0.60;;;12.00;99.90;;;;;;4954745;29;20420;-84
2022/10/02 06:03:08;;;;;;;1.48;0.40;;;11.90;99.90;;;;;;4955149;28;20030;-83
2022/10/02 06:05:55;;;;;;;1.38;0.38;;;11.90;99.90;;;;;;4953281;28;20090;-83
2022/10/02 06:08:42;;;;;;;1.90;0.35;;;12.00;99.90;;;;;;4952681;29;20023;-84
2022/10/02 06:11:33;;;;;;;3.17;0.60;;;12.00;99.90;;;;;;4951775;29;20035;-84
2022/10/02 06:14:14;;;;;;;3.53;1.25;;;12.00;99.90;;;;;;4952198;28;20027;-83
2022/10/02 06:16:52;;;;;;;2.72;1.00;;;12.00;99.90;;;;;;4946796;28;20038;-84
2022/10/02 06:19:39;;;;;;;2.55;0.85;;;12.00;99.90;;;;;;4951031;29;20031;-84
2022/10/02 06:22:08;;;;;;;3.30;0.47;;;12.00;99.90;;;;;;4953011;29;20042;-83
2022/10/02 06:24:44;;;;;;;2.25;0.60;;;12.00;99.90;;;;;;4952755;28;20411;-84
2022/10/02 06:27:21;;;;;;;3.22;0.60;;;12.00;99.90;;;;;;4950529;29;20122;-84
2022/10/02 06:30:09;;;;;;;3.28;0.55;;;12.00;99.90;;;;;;4952387;28;20015;-84
2022/10/02 06:32:54;;;;;;;2.22;0.40;;;12.00;99.90;;;;;;4950245;28;20031;-84
2022/10/02 06:35:50;;;;;;;2.47;0.50;;;12.00;99.90;;;;;;4950283;29;20178;-83
2022/10/02 06:38:38;;;;;;;0.88;0.30;;;12.00;99.90;;;;;;4953667;28;21488;-84
2022/10/02 06:41:19;;;;;;;2.65;0.28;;;12.00;99.90;;;;;;4953626;29;20512;-84
2022/10/02 06:44:04;;;;;;;0.70;0.20;;;12.00;99.90;;;;;;4953740;28;20059;-83
2022/10/02 06:46:42;;;;;;;1.00;0.20;;;12.10;99.90;;;;;;4956497;28;20082;-84
2022/10/02 06:49:24;;;;;;;4.47;1.48;;;12.10;99.90;;;;;;4956085;28;20082;-84
2022/10/02 06:52:09;;;;;;;1.92;0.60;;;12.10;99.90;;;;;;4956797;29;20437;-84
2022/10/02 06:54:47;;;;;;;1.92;0.40;;;12.10;99.90;;;;;;4956911;28;20039;-84
2022/10/02 06:57:33;;;;;;;1.10;0.40;;;12.10;99.90;;;;;;4954741;29;20216;-83
2022/10/02 07:00:15;;;;;;;1.65;0.60;;;12.10;99.90;;;;;;4944860;29;20098;-83
2022/10/02 07:02:47;;;;;;;22.02;6.50;;;12.20;99.90;;;;;;4954096;28;20031;-84
2022/10/02 07:05:31;;;;;;;13.32;5.13;;;12.10;99.90;;;;;;4956872;29;20034;-84
2022/10/02 07:08:15;;;;;;;5.15;2.17;;;12.20;99.90;;;;;;4958960;28;20023;-84
2022/10/02 07:11:18;;;;;;;4.80;1.00;;;12.20;99.90;;;;;;4957782;28;20015;-83
2022/10/02 07:13:59;;;;;;;1.92;0.63;;;12.20;99.90;;;;;;4956423;28;20103;-84
2022/10/02 07:16:48;;;;;;;3.40;0.60;;;12.20;99.90;;;;;;4958165;28;20035;-84
2022/10/02 07:19:38;;;;;;;2.42;0.35;;;12.20;99.90;;;;;;4955508;28;20065;-84
2022/10/02 07:22:13;;;;;;;0.95;0.25;;;12.30;99.90;;;;;;4959310;29;20046;-84
2022/10/02 07:25:01;;;;;;;4.93;0.30;;;12.30;99.90;;;;;;4972104;28;20127;-83
2022/10/02 07:27:48;;;;;;;4.22;1.00;;;12.30;99.90;;;;;;4958842;28;20035;-83
2022/10/02 07:30:16;;;;;;;1.83;0.60;;;12.30;99.90;;;;;;4959530;28;20050;-84
2022/10/02 07:32:54;;;;;;;3.60;1.20;;;12.30;99.90;;;;;;4957887;28;20499;-83
2022/10/02 07:36:02;;;;;;;2.65;1.00;;;12.30;99.90;;;;;;4957077;29;20035;-84
2022/10/02 07:38:43;;;;;;;2.70;0.90;;;12.30;99.90;;;;;;4958339;28;20042;-84
2022/10/02 07:41:29;;;;;;;2.35;0.80;;;12.40;99.90;;;;;;4958528;28;20119;-84
2022/10/02 07:44:24;;;;;;;3.03;1.30;;;12.40;99.90;;;;;;4949178;28;20071;-84
2022/10/02 07:47:06;;;;;;;4.50;2.10;;;12.40;99.90;;;;;;4949980;28;20039;-85
2022/10/02 07:49:40;;;;;;;2.15;0.82;;;12.60;99.90;;;;;;4952682;29;20043;-84
2022/10/02 07:52:25;;;;;;;3.40;0.55;;;12.50;99.90;;;;;;4952242;29;20020;-84
2022/10/02 07:55:13;;;;;;;2.13;0.90;;;12.50;99.90;;;;;;4953380;28;20024;-84
2022/10/02 07:58:04;;;;;;;3.00;1.02;;;12.60;99.90;;;;;;4951591;29;20027;-84
2022/10/02 08:00:51;;;;;;;2.63;1.00;;;12.60;99.90;;;;;;4952603;29;20114;-84
2022/10/02 08:03:54;;;;;;;4.55;1.05;;;12.60;99.90;;;;;;4953182;28;20076;-86
2022/10/02 08:06:19;;;;;;;3.38;0.70;;;12.70;99.90;;;;;;4943839;28;20043;-83
2022/10/02 08:08:59;;;;;;;4.35;1.20;;;12.70;99.90;;;;;;4952560;29;20182;-84
2022/10/02 08:11:39;;;;;;;1.67;0.60;;;12.70;99.90;;;;;;4953650;28;20085;-83
2022/10/02 08:14:14;;;;;;;1.95;0.60;;;12.80;99.90;;;;;;4968062;28;20043;-84
2022/10/02 08:16:53;;;;;;;3.17;0.80;;;12.80;99.90;;;;;;4982072;23;20049;-87
2022/10/02 08:19:38;;;;;;;3.15;0.63;;;12.90;99.90;;;;;;4972438;28;20027;-86
2022/10/02 08:22:21;;;;;;;15.27;5.85;;;13.50;99.90;;;;;;4971482;28;20033;-87
2022/10/02 08:24:52;;;;;;;2.80;1.02;;;13.10;99.90;;;;;;4987359;28;20480;-87
2022/10/02 08:27:23;;;;;;;1.52;0.70;;;13.20;99.90;;;;;;4965742;28;20042;-87
2022/10/02 08:29:52;;;;;;;2.80;0.68;;;13.60;99.90;;;;;;4970311;28;20062;-87
2022/10/02 08:32:18;;;;;;;3.17;0.60;;;13.20;99.90;;;;;;4960298;28;20058;-87
2022/10/02 08:34:47;;;;;;;2.35;0.57;;;13.30;99.90;;;;;;4973125;28;20055;-88
2022/10/02 08:38:08;;;;;;;3.05;1.00;;;13.40;99.90;;;;;;4969290;28;20082;-87
2022/10/02 08:41:03;;;;;;;1.15;0.45;;;13.50;99.90;;;;;;4970687;28;20034;-88
2022/10/02 08:44:05;;;;;;;2.10;0.70;;;13.60;99.90;;;;;;4971365;28;20023;-86
2022/10/02 08:46:57;;;;;;;2.33;0.80;;;13.70;99.90;;;;;;4970675;28;20093;-88
2022/10/02 08:49:46;;;;;;;3.72;0.73;;;13.70;99.90;;;;;;4959927;28;20066;-88
2022/10/02 08:52:33;;;;;;;0.88;0.47;;;13.80;99.90;;;;;;4972833;28;20023;-87
2022/10/02 08:55:30;;;;;;;1.00;0.45;;;13.90;99.90;;;;;;4966504;28;20039;-87
2022/10/02 08:58:39;;;;;;;2.85;0.70;;;14.10;99.90;;;;;;4965611;28;20110;-88
2022/10/02 09:01:23;;;;;;;3.00;0.88;;;14.40;99.90;;;;;;4966788;28;20387;-89
2022/10/02 09:04:00;;;;;;;1.38;0.50;;;14.50;99.90;;;;;;4970724;28;20106;-87
2022/10/02 09:06:44;;;;;;;2.05;0.63;;;14.50;99.90;;;;;;4970374;28;20050;-85
2022/10/02 09:09:28;;;;;;;1.10;0.50;;;14.60;99.90;;;;;;4968948;28;20019;-85
2022/10/02 09:12:13;;;;;;;3.15;0.60;;;14.70;99.90;;;;;;4958692;28;20134;-84
2022/10/02 09:14:51;;;;;;;3.55;0.73;;;14.70;99.90;;;;;;4964475;28;20014;-85
2022/10/02 09:17:46;;;;;;;1.48;0.40;;;14.90;99.90;;;;;;4965549;28;20042;-85
2022/10/02 09:20:53;;;;;;;2.53;0.88;;;14.80;99.90;;;;;;4967286;28;20509;-87
2022/10/02 09:23:51;;;;;;;2.25;0.60;;;14.90;99.90;;;;;;4954538;28;20039;-86
2022/10/02 09:26:32;;;;;;;1.83;0.70;;;15.00;99.90;;;;;;4951721;28;20058;-85
2022/10/02 09:29:36;;;;;;;1.38;0.50;;;15.10;99.90;;;;;;4967036;28;20035;-85
2022/10/02 09:32:26;;;;;;;1.75;0.70;;;15.20;99.90;;;;;;4961590;28;20027;-86
2022/10/02 09:35:32;;;;;;;2.67;0.77;;;15.30;99.90;;;;;;4958358;28;20050;-86
2022/10/02 09:38:06;;;;;;;0.77;0.43;;;15.50;99.90;;;;;;4983119;28;20373;-86
2022/10/02 09:40:52;;;;;;;2.03;0.60;;;15.60;99.90;;;;;;4968390;28;20023;-86
2022/10/02 09:43:29;;;;;;;3.70;0.52;;;15.70;99.90;;;;;;4969822;28;20027;-87
2022/10/02 09:45:57;;;;;;;3.05;0.60;;;15.70;99.90;;;;;;4968825;28;20019;-86
2022/10/02 09:48:45;;;;;;;1.67;0.63;;;15.60;99.90;;;;;;4968843;28;20026;-86
2022/10/02 09:51:41;;;;;;;4.00;0.90;;;15.70;99.90;;;;;;4966647;28;20068;-82
2022/10/02 09:54:31;;;;;;;2.53;0.70;;;15.60;99.90;;;;;;4951036;28;20120;-86
2022/10/02 09:57:34;;;;;;;2.90;1.20;;;15.80;99.90;;;;;;4968286;28;20492;-86
2022/10/02 10:00:18;;;;;;;4.22;1.25;;;15.90;99.90;;;;;;4967925;28;20049;-88
2022/10/02 10:02:46;;;;;;;6.72;2.53;;;16.00;99.90;;;;;;4961609;28;20023;-88
2022/10/02 10:05:34;;;;;;;3.20;0.95;;;16.10;99.90;;;;;;4963075;28;20058;-87
2022/10/02 10:08:32;;;;;;;2.08;0.73;;;16.00;99.90;;;;;;4971385;28;20022;-87
2022/10/02 10:11:11;;;;;;;2.28;0.77;;;15.80;99.90;;;;;;4967291;28;20743;-86
2022/10/02 10:14:04;;;;;;;1.13;0.43;;;15.90;99.90;;;;;;4967428;28;20381;-87
2022/10/02 10:16:45;;;;;;;2.50;0.80;;;15.50;99.90;;;;;;4984069;28;20038;-86
2022/10/02 10:19:25;;;;;;;1.65;0.68;;;15.20;99.90;;;;;;4963420;28;20114;-87
2022/10/02 10:22:10;;;;;;;1.27;0.65;;;15.00;99.90;;;;;;4968655;28;20026;-87
2022/10/02 10:25:12;;;;;;;1.27;0.60;;;14.80;99.90;;;;;;4969691;28;20026;-86
2022/10/02 10:28:08;;;;;;;2.03;0.75;;;14.60;99.90;;;;;;4969119;28;20031;-86
2022/10/02 10:31:11;;;;;;;2.05;0.93;;;14.40;99.90;;;;;;4963776;28;20037;-87
2022/10/02 10:34:01;;;;;;;2.17;0.88;;;14.20;99.90;;;;;;4970570;28;20021;-88
2022/10/02 10:39:48;;;;;;;2.13;1.00;;;14.40;99.90;;;;;;4971267;28;20038;-88
2022/10/02 10:42:24;;;;;;;2.95;1.05;;;13.90;99.90;;;;;;4962586;28;20034;-88
2022/10/02 10:45:02;;;;;;;3.10;1.00;;;13.90;99.90;;;;;;4966183;28;20037;-89
2022/10/02 10:47:45;;;;;;;2.72;1.33;;;14.30;99.90;;;;;;4964628;28;20051;-88
2022/10/02 10:50:46;;;;;;;3.17;1.08;;;14.00;99.90;;;;;;4963690;28;20632;-88
2022/10/02 10:53:22;;;;;;;2.63;0.70;;;14.10;99.90;;;;;;4966061;28;20023;-91
2022/10/02 10:56:19;;;;;;;5.80;1.02;;;14.40;99.90;;;;;;4963031;28;20487;-86
2022/10/02 10:59:29;;;;;;;1.45;0.73;;;14.20;99.90;;;;;;4966107;28;20524;-87
2022/10/02 11:02:12;;;;;;;1.70;0.95;;;14.30;99.90;;;;;;4962161;28;20031;-87
2022/10/02 11:05:15;;;;;;;1.90;1.00;;;14.40;99.90;;;;;;4967940;28;20102;-87
2022/10/02 11:08:08;;;;;;;1.77;0.98;;;14.60;99.90;;;;;;4960687;28;20034;-88
2022/10/02 11:10:49;;;;;;;1.48;0.80;;;14.00;99.90;;;;;;4964466;28;20031;-88
2022/10/02 11:13:32;;;;;;;1.58;0.70;;;13.80;99.90;;;;;;4966122;28;20030;-87
2022/10/02 11:16:17;;;;;;;3.47;1.35;;;13.80;99.90;;;;;;4962250;28;20030;-88
2022/10/02 11:19:07;;;;;;;1.88;0.80;;;13.80;99.90;;;;;;4960465;28;20042;-87
2022/10/02 11:21:45;;;;;;;1.27;0.47;;;13.90;99.90;;;;;;4959653;28;20082;-88
2022/10/02 11:24:26;;;;;;;3.35;0.60;;;14.10;99.90;;;;;;4961155;28;20089;-88
2022/10/02 11:27:18;;;;;;;1.17;0.60;;;14.20;99.90;;;;;;4963726;28;20533;-89
2022/10/02 11:29:50;;;;;;;1.20;0.40;;;14.40;99.90;;;;;;4938464;28;20086;-88
2022/10/02 11:32:38;;;;;;;0.95;0.45;;;14.40;99.90;;;;;;4981544;28;20266;-88
2022/10/02 11:35:22;;;;;;;1.33;0.50;;;14.40;99.90;;;;;;4964042;28;20033;-88
2022/10/02 11:38:26;;;;;;;2.67;0.63;;;14.40;99.90;;;;;;4957854;28;20019;-88
2022/10/02 11:40:52;;;;;;;1.27;0.50;;;14.40;99.90;;;;;;4938958;28;20035;-88
2022/10/02 11:43:47;;;;;;;1.33;0.50;;;14.30;99.90;;;;;;4984794;28;20378;-88
2022/10/02 11:46:37;;;;;;;0.95;0.40;;;14.90;99.90;;;;;;4933177;28;20119;-88
2022/10/02 11:49:25;;;;;;;0.50;0.30;;;14.30;99.90;;;;;;4962972;28;20038;-89
2022/10/02 11:52:24;;;;;;;1.08;0.40;;;14.30;99.90;;;;;;4966532;28;20070;-88
2022/10/02 11:55:20;;;;;;;0.95;0.40;;;14.20;99.90;;;;;;4964545;28;20050;-89
2022/10/02 11:58:20;;;;;;;0.80;0.35;;;14.20;99.90;;;;;;4957116;28;20035;-86
2022/10/02 12:01:23;;;;;;;1.20;0.20;;;14.00;99.90;;;;;;4965268;28;20023;-87
2022/10/02 12:04:39;;;;;;;0.50;0.20;;;13.90;99.90;;;;;;4966558;28;20267;-91
2022/10/02 12:07:23;;;;;;;0.57;0.20;;;13.90;99.90;;;;;;4975565;28;20027;-88
2022/10/02 12:13:38;;;;;;;0.60;0.20;;;13.70;99.90;;;;;;4955410;28;20054;-88
2022/10/02 12:16:22;;;;;;;0.43;0.20;;;13.80;99.90;;;;;;4969526;28;20038;-90
2022/10/02 12:18:56;;;;;;;0.55;0.20;;;13.80;99.90;;;;;;4973375;28;20073;-90
2022/10/02 12:27:50;;;;;;;1.75;0.45;;;13.80;99.90;;;;;;4975055;28;20111;-91
2022/10/02 12:30:30;;;;;;;0.75;0.20;;;13.80;99.90;;;;;;4975119;28;20031;-90
2022/10/02 12:33:06;;;;;;;0.40;0.10;;;13.70;99.90;;;;;;4970442;28;20070;-88
2022/10/02 12:36:04;;;;;;;0.20;0.10;;;13.70;99.90;;;;;;4966745;28;20023;-87
2022/10/02 12:38:51;;;;;;;0.17;0.10;;;13.60;99.90;;;;;;4986248;28;20043;-88
2022/10/02 12:41:39;;;;;;;0.77;0.10;;;13.50;99.90;;;;;;4960821;28;20030;-87
2022/10/02 12:44:57;;;;;;;1.38;0.20;;;13.40;99.90;;;;;;4974358;28;20027;-88
2022/10/02 12:47:47;;;;;;;10.88;4.03;;;13.40;99.90;;;;;;4972014;28;20110;-89
2022/10/02 12:50:53;;;;;;;2.05;0.55;;;13.50;99.90;;;;;;4961958;28;20035;-89
2022/10/02 12:54:06;;;;;;;0.30;0.10;;;13.50;99.90;;;;;;4969237;28;20066;-85
2022/10/02 12:56:50;;;;;;;0.50;0.10;;;13.40;99.90;;;;;;4968515;28;20034;-88
2022/10/02 12:59:37;;;;;;;0.10;0.10;;;13.40;99.90;;;;;;4966100;28;20032;-88
2022/10/02 13:03:06;;;;;;;0.20;0.10;;;13.30;99.90;;;;;;4973290;28;20393;-90
2022/10/02 13:06:23;;;;;;;0.40;0.20;;;13.30;99.90;;;;;;4955754;28;20119;-88
2022/10/02 13:12:55;;;;;;;0.10;0.10;;;13.30;99.90;;;;;;4969421;28;20094;-90
2022/10/02 13:15:52;;;;;;;0.55;0.10;;;13.10;99.90;;;;;;4971240;28;20045;-86
2022/10/02 13:18:42;;;;;;;0.50;0.17;;;13.20;99.90;;;;;;4971925;28;20562;-85
2022/10/02 13:21:52;;;;;;;;;;;;;;;;;;;;;
2022/10/02 13:25:07;;;;;;;;;;;;;;;;;;;;;
2022/10/02 13:28:14;;;;;;;0.08;0.00;;;13.00;99.90;;;;;;4971995;28;20053;-87
2022/10/02 13:31:16;;;;;;;0.15;0.00;;;13.20;99.90;;;;;;4969544;28;20484;-89
2022/10/02 13:34:01;;;;;;;0.93;0.30;;;13.20;99.90;;;;;;4966049;28;20165;-87
2022/10/02 13:37:10;;;;;;;0.40;0.10;;;13.20;99.90;;;;;;4963168;28;20033;-88
2022/10/02 13:39:51;;;;;;;0.40;0.15;;;13.20;99.90;;;;;;4946642;28;20813;-86
2022/10/02 13:43:08;;;;;;;0.20;0.00;;;13.40;99.90;;;;;;4965417;28;20038;-87
2022/10/02 13:46:03;;;;;;;0.20;0.10;;;13.40;99.90;;;;;;4969917;28;20031;-87
2022/10/02 13:48:53;;;;;;;0.08;0.08;;;13.60;99.90;;;;;;4969949;28;20484;-87
2022/10/02 13:51:30;;;;;;;0.10;0.10;;;13.80;99.90;;;;;;4963608;28;20026;-88
2022/10/02 13:54:17;;;;;;;1.08;0.60;;;13.80;99.90;;;;;;4961458;28;20026;-87
2022/10/02 13:56:50;;;;;;;0.63;0.30;;;13.80;99.90;;;;;;4967730;28;20118;-87
2022/10/02 13:59:31;;;;;;;0.17;0.10;;;13.80;99.90;;;;;;4969255;28;20023;-87
2022/10/02 14:02:14;;;;;;;0.63;0.10;;;13.60;99.90;;;;;;4965163;28;20037;-86
2022/10/02 14:05:17;;;;;;;0.45;0.20;;;13.60;99.90;;;;;;4964941;28;20031;-86
2022/10/02 14:07:51;;;;;;;;;;;13.60;99.90;;;;;;4968352;28;20050;-86
2022/10/02 14:10:51;;;;;;;0.63;0.10;;;13.60;99.90;;;;;;4970410;28;19956;-86
2022/10/02 14:13:46;;;;;;;0.82;0.10;;;13.80;99.90;;;;;;4964406;28;20076;-86
2022/10/02 14:16:47;;;;;;;13.77;4.10;;;13.60;99.90;;;;;;4967733;28;20026;-86
2022/10/02 14:19:38;;;;;;;2.55;0.63;;;13.50;99.90;;;;;;5014777;23;20054;-86
2022/10/02 14:22:16;;;;;;;2.75;0.77;;;13.50;99.90;;;;;;4987833;28;20395;-85
2022/10/02 14:25:19;;;;;;;0.52;0.10;;;13.50;99.90;;;;;;5011231;28;20022;-86
2022/10/02 14:28:15;;;;;;;0.20;0.03;;;13.40;99.90;;;;;;4990864;28;20038;-86
2022/10/02 14:31:09;;;;;;;0.52;0.20;;;13.20;99.90;;;;;;4980916;28;20041;-87